Terminal Aerodrome Forecast
Issued by NWS

Home | Current Version | Previous Version | Text Only | Print | Product List | Glossary On
Versions: 1 2 3 4 5 6 7 8 9 10 11 12 13 14
000
FTUS43 KAPX 281746
TAFPLN
TAF
KPLN 281746Z 2818/2918 VRB03KT 3SM -SHRA VCTS SCT023 OVC035CB
      TEMPO 2818/2820 1SM +TSRA BKN025CB
     FM282000 00000KT P6SM VCSH OVC030
     FM290000 VRB03KT P6SM BKN030
     FM290300 VRB03KT 4SM BR BKN030
     FM290900 23005KT P6SM BKN030
     FM291300 23008KT P6SM VCSH BKN060=

USA.gov is the U.S. government's official web portal to all federal, state and local government web resources and services.